Shoreacres, Texas
Current Conditions -  °F | °C
As of 5:50 AM on Friday 19 Dec 2014 (Local Time) from KEFD Reporting Station
Light Rain Light Rain  
Wind Chill: 59°   Ceiling: 500
Heat Index: 59°   Visibility: 5mi
Dew Point: 59°   Wind: 7mph
Humidity: 100%   Direction: 90°E
Pressure: 30.01"   Gusts: NA
Location:  29.6785°N, 95.0483°W
Report Text: KEFD 191150Z 09006KT 5SM -RA BKN005 OVC021 15/15 A3001
Loading
Personal Weather Stations






























Interactive Weather Map New forecast layout! Learn more

10-Day Weather Forecast

Advertisements
Track Severe Weather on mobile